sensor_id;sensor_type;location;lat;lon;timestamp;pressure;altitude;pressure_sealevel;temperature;humidity
9784;BME280;4931;44.874;-1.092;2023-03-15T00:01:43;102028.53;;;11.24;100.00
9784;BME280;4931;44.874;-1.092;2023-03-15T00:04:11;102018.50;;;11.12;100.00
9784;BME280;4931;44.874;-1.092;2023-03-15T00:06:37;102032.16;;;11.07;100.00
9784;BME280;4931;44.874;-1.092;2023-03-15T00:09:03;102033.66;;;10.98;100.00
9784;BME280;4931;44.874;-1.092;2023-03-15T00:11:29;102039.97;;;10.99;100.00
9784;BME280;4931;44.874;-1.092;2023-03-15T00:13:58;102036.16;;;11.00;100.00
9784;BME280;4931;44.874;-1.092;2023-03-15T00:16:26;102049.09;;;11.04;100.00
9784;BME280;4931;44.874;-1.092;2023-03-15T00:18:55;102054.59;;;11.04;100.00
9784;BME280;4931;44.874;-1.092;2023-03-15T00:21:21;102059.09;;;11.10;100.00
9784;BME280;4931;44.874;-1.092;2023-03-15T00:23:48;102049.97;;;10.88;100.00
9784;BME280;4931;44.874;-1.092;2023-03-15T00:26:13;102033.75;;;10.86;100.00
9784;BME280;4931;44.874;-1.092;2023-03-15T00:28:39;102023.09;;;10.90;100.00
9784;BME280;4931;44.874;-1.092;2023-03-15T00:33:38;102010.19;;;10.90;100.00
9784;BME280;4931;44.874;-1.092;2023-03-15T00:36:05;102023.00;;;10.85;100.00
9784;BME280;4931;44.874;-1.092;2023-03-15T00:38:32;102025.69;;;10.79;100.00
9784;BME280;4931;44.874;-1.092;2023-03-15T00:41:09;102028.34;;;10.74;100.00
9784;BME280;4931;44.874;-1.092;2023-03-15T00:43:36;102025.88;;;10.56;100.00
9784;BME280;4931;44.874;-1.092;2023-03-15T00:46:02;102025.34;;;10.59;100.00
9784;BME280;4931;44.874;-1.092;2023-03-15T00:48:28;102033.69;;;10.64;100.00
9784;BME280;4931;44.874;-1.092;2023-03-15T00:51:08;102029.84;;;10.65;100.00
9784;BME280;4931;44.874;-1.092;2023-03-15T00:53:36;102017.78;;;10.66;100.00
9784;BME280;4931;44.874;-1.092;2023-03-15T00:56:19;102011.72;;;10.64;100.00
9784;BME280;4931;44.874;-1.092;2023-03-15T00:58:45;102013.06;;;10.61;100.00
9784;BME280;4931;44.874;-1.092;2023-03-15T01:01:17;102003.41;;;10.59;100.00
9784;BME280;4931;44.874;-1.092;2023-03-15T01:03:44;101990.25;;;10.44;100.00
9784;BME280;4931;44.874;-1.092;2023-03-15T01:06:12;101993.75;;;10.39;100.00
9784;BME280;4931;44.874;-1.092;2023-03-15T01:08:39;101995.41;;;10.40;100.00
9784;BME280;4931;44.874;-1.092;2023-03-15T01:11:08;101988.78;;;10.36;100.00
9784;BME280;4931;44.874;-1.092;2023-03-15T01:13:35;101995.34;;;10.35;100.00
9784;BME280;4931;44.874;-1.092;2023-03-15T01:16:01;101984.25;;;10.30;100.00
9784;BME280;4931;44.874;-1.092;2023-03-15T01:18:27;101984.75;;;10.27;100.00
9784;BME280;4931;44.874;-1.092;2023-03-15T01:20:52;101990.88;;;10.17;100.00
9784;BME280;4931;44.874;-1.092;2023-03-15T01:23:18;101981.63;;;10.06;100.00
9784;BME280;4931;44.874;-1.092;2023-03-15T01:25:44;101986.28;;;10.06;100.00
9784;BME280;4931;44.874;-1.092;2023-03-15T01:28:09;101982.34;;;10.02;100.00
9784;BME280;4931;44.874;-1.092;2023-03-15T01:30:35;101987.03;;;10.01;100.00
9784;BME280;4931;44.874;-1.092;2023-03-15T01:33:00;101979.78;;;9.95;100.00
9784;BME280;4931;44.874;-1.092;2023-03-15T01:35:26;101985.84;;;9.97;100.00
9784;BME280;4931;44.874;-1.092;2023-03-15T01:37:51;101977.63;;;9.97;100.00
9784;BME280;4931;44.874;-1.092;2023-03-15T01:40:17;101988.84;;;9.95;100.00
9784;BME280;4931;44.874;-1.092;2023-03-15T01:48:14;101986.69;;;9.97;100.00
9784;BME280;4931;44.874;-1.092;2023-03-15T01:50:41;101983.69;;;9.99;100.00
9784;BME280;4931;44.874;-1.092;2023-03-15T01:53:06;101981.44;;;9.96;100.00
9784;BME280;4931;44.874;-1.092;2023-03-15T01:55:32;102000.03;;;9.94;100.00
9784;BME280;4931;44.874;-1.092;2023-03-15T01:57:59;101996.81;;;9.97;100.00
9784;BME280;4931;44.874;-1.092;2023-03-15T02:00:26;102008.75;;;9.91;100.00
9784;BME280;4931;44.874;-1.092;2023-03-15T02:02:54;102010.91;;;9.89;100.00
9784;BME280;4931;44.874;-1.092;2023-03-15T02:05:25;102015.22;;;9.85;100.00
9784;BME280;4931;44.874;-1.092;2023-03-15T02:07:51;102008.66;;;9.86;100.00
9784;BME280;4931;44.874;-1.092;2023-03-15T02:10:52;102012.56;;;9.90;100.00
9784;BME280;4931;44.874;-1.092;2023-03-15T02:13:20;102014.34;;;9.96;100.00
9784;BME280;4931;44.874;-1.092;2023-03-15T02:15:47;102012.66;;;9.95;100.00
9784;BME280;4931;44.874;-1.092;2023-03-15T02:18:14;102018.56;;;9.87;100.00
9784;BME280;4931;44.874;-1.092;2023-03-15T02:23:17;102018.41;;;9.93;100.00
9784;BME280;4931;44.874;-1.092;2023-03-15T02:28:38;102013.06;;;9.87;100.00
9784;BME280;4931;44.874;-1.092;2023-03-15T02:31:05;102004.75;;;9.82;100.00
9784;BME280;4931;44.874;-1.092;2023-03-15T02:33:45;102005.91;;;9.86;100.00
9784;BME280;4931;44.874;-1.092;2023-03-15T02:36:15;101995.81;;;9.86;100.00
9784;BME280;4931;44.874;-1.092;2023-03-15T02:38:42;101985.56;;;9.82;100.00
9784;BME280;4931;44.874;-1.092;2023-03-15T02:41:08;101979.97;;;9.76;100.00
9784;BME280;4931;44.874;-1.092;2023-03-15T02:43:35;101980.69;;;9.84;100.00
9784;BME280;4931;44.874;-1.092;2023-03-15T02:46:01;101979.00;;;9.83;100.00
9784;BME280;4931;44.874;-1.092;2023-03-15T02:48:28;101970.28;;;9.86;100.00
9784;BME280;4931;44.874;-1.092;2023-03-15T02:50:55;101976.63;;;9.86;100.00
9784;BME280;4931;44.874;-1.092;2023-03-15T02:53:21;101977.00;;;9.78;100.00
9784;BME280;4931;44.874;-1.092;2023-03-15T02:55:46;101977.00;;;9.78;100.00
9784;BME280;4931;44.874;-1.092;2023-03-15T02:58:11;101971.25;;;9.79;100.00
9784;BME280;4931;44.874;-1.092;2023-03-15T03:00:37;101970.19;;;9.80;100.00
9784;BME280;4931;44.874;-1.092;2023-03-15T03:03:03;101971.66;;;9.71;100.00
9784;BME280;4931;44.874;-1.092;2023-03-15T03:05:29;101961.88;;;9.75;100.00
9784;BME280;4931;44.874;-1.092;2023-03-15T03:07:54;101966.69;;;9.68;100.00
9784;BME280;4931;44.874;-1.092;2023-03-15T03:10:20;101970.00;;;9.70;100.00
9784;BME280;4931;44.874;-1.092;2023-03-15T03:12:46;101959.88;;;9.71;100.00
9784;BME280;4931;44.874;-1.092;2023-03-15T03:15:11;101961.66;;;9.65;100.00
9784;BME280;4931;44.874;-1.092;2023-03-15T03:17:37;101951.41;;;9.72;100.00
9784;BME280;4931;44.874;-1.092;2023-03-15T03:20:08;101948.06;;;9.70;100.00
9784;BME280;4931;44.874;-1.092;2023-03-15T03:22:35;101940.25;;;9.62;100.00
9784;BME280;4931;44.874;-1.092;2023-03-15T03:25:01;101941.22;;;9.56;100.00
9784;BME280;4931;44.874;-1.092;2023-03-15T03:27:28;101941.00;;;9.45;100.00
9784;BME280;4931;44.874;-1.092;2023-03-15T03:29:53;101927.56;;;9.44;100.00
9784;BME280;4931;44.874;-1.092;2023-03-15T03:32:19;101920.09;;;9.39;100.00
9784;BME280;4931;44.874;-1.092;2023-03-15T03:34:44;101920.56;;;9.36;100.00
9784;BME280;4931;44.874;-1.092;2023-03-15T03:37:17;101924.03;;;9.32;100.00
9784;BME280;4931;44.874;-1.092;2023-03-15T03:39:43;101912.75;;;9.28;100.00
9784;BME280;4931;44.874;-1.092;2023-03-15T03:42:08;101902.44;;;9.18;100.00
9784;BME280;4931;44.874;-1.092;2023-03-15T03:44:34;101903.50;;;9.17;100.00
9784;BME280;4931;44.874;-1.092;2023-03-15T03:46:59;101899.84;;;9.11;100.00
9784;BME280;4931;44.874;-1.092;2023-03-15T03:49:25;101896.38;;;9.04;100.00
9784;BME280;4931;44.874;-1.092;2023-03-15T03:51:50;101895.22;;;9.00;100.00
9784;BME280;4931;44.874;-1.092;2023-03-15T03:54:16;101894.06;;;8.84;100.00
9784;BME280;4931;44.874;-1.092;2023-03-15T03:56:41;101897.03;;;8.83;100.00
9784;BME280;4931;44.874;-1.092;2023-03-15T03:59:07;101898.56;;;8.78;100.00
9784;BME280;4931;44.874;-1.092;2023-03-15T04:01:32;101904.16;;;8.72;100.00
9784;BME280;4931;44.874;-1.092;2023-03-15T04:03:58;101909.75;;;8.65;100.00
9784;BME280;4931;44.874;-1.092;2023-03-15T04:06:23;101902.63;;;8.64;100.00
9784;BME280;4931;44.874;-1.092;2023-03-15T04:08:49;101900.75;;;8.53;100.00
9784;BME280;4931;44.874;-1.092;2023-03-15T04:11:14;101902.88;;;8.51;100.00
9784;BME280;4931;44.874;-1.092;2023-03-15T04:13:42;101915.13;;;8.48;100.00
9784;BME280;4931;44.874;-1.092;2023-03-15T04:16:09;101896.66;;;8.43;100.00
9784;BME280;4931;44.874;-1.092;2023-03-15T04:18:35;101903.31;;;8.36;100.00
9784;BME280;4931;44.874;-1.092;2023-03-15T04:21:00;101913.41;;;8.35;100.00
9784;BME280;4931;44.874;-1.092;2023-03-15T04:23:26;101914.00;;;8.37;100.00
9784;BME280;4931;44.874;-1.092;2023-03-15T04:25:51;101907.94;;;8.35;100.00
9784;BME280;4931;44.874;-1.092;2023-03-15T04:28:19;101901.16;;;8.26;100.00
9784;BME280;4931;44.874;-1.092;2023-03-15T04:30:47;101902.38;;;8.30;100.00
9784;BME280;4931;44.874;-1.092;2023-03-15T04:33:13;101901.63;;;8.23;100.00
9784;BME280;4931;44.874;-1.092;2023-03-15T04:35:39;101907.72;;;8.25;100.00
9784;BME280;4931;44.874;-1.092;2023-03-15T04:38:07;101894.03;;;8.01;100.00
9784;BME280;4931;44.874;-1.092;2023-03-15T04:40:33;101888.06;;;8.04;100.00
9784;BME280;4931;44.874;-1.092;2023-03-15T04:43:03;101893.53;;;8.04;100.00
9784;BME280;4931;44.874;-1.092;2023-03-15T04:45:29;101894.13;;;8.06;100.00
9784;BME280;4931;44.874;-1.092;2023-03-15T04:47:56;101893.66;;;7.97;100.00
9784;BME280;4931;44.874;-1.092;2023-03-15T04:50:23;101885.19;;;7.87;100.00
9784;BME280;4931;44.874;-1.092;2023-03-15T04:52:49;101895.28;;;7.87;100.00
9784;BME280;4931;44.874;-1.092;2023-03-15T04:55:15;101906.53;;;7.78;100.00
9784;BME280;4931;44.874;-1.092;2023-03-15T04:57:41;101907.41;;;7.91;100.00
9784;BME280;4931;44.874;-1.092;2023-03-15T05:00:08;101918.47;;;7.96;100.00
9784;BME280;4931;44.874;-1.092;2023-03-15T05:02:35;101926.81;;;8.01;100.00
9784;BME280;4931;44.874;-1.092;2023-03-15T05:05:06;101913.00;;;7.96;100.00
9784;BME280;4931;44.874;-1.092;2023-03-15T05:07:37;101923.25;;;8.12;100.00
9784;BME280;4931;44.874;-1.092;2023-03-15T05:10:04;101909.44;;;8.07;100.00
9784;BME280;4931;44.874;-1.092;2023-03-15T05:12:30;101901.28;;;8.19;100.00
9784;BME280;4931;44.874;-1.092;2023-03-15T05:14:56;101898.28;;;8.21;100.00
9784;BME280;4931;44.874;-1.092;2023-03-15T05:17:22;101905.81;;;8.25;100.00
9784;BME280;4931;44.874;-1.092;2023-03-15T05:19:48;101899.63;;;8.18;100.00
9784;BME280;4931;44.874;-1.092;2023-03-15T05:22:14;101899.72;;;8.11;100.00
9784;BME280;4931;44.874;-1.092;2023-03-15T05:24:39;101905.19;;;8.11;100.00
9784;BME280;4931;44.874;-1.092;2023-03-15T05:27:04;101919.94;;;8.10;100.00
9784;BME280;4931;44.874;-1.092;2023-03-15T05:29:30;101922.53;;;8.05;100.00
9784;BME280;4931;44.874;-1.092;2023-03-15T05:31:58;101923.47;;;7.99;100.00
9784;BME280;4931;44.874;-1.092;2023-03-15T05:34:24;101944.47;;;7.87;100.00
9784;BME280;4931;44.874;-1.092;2023-03-15T05:36:50;101946.53;;;8.03;100.00
9784;BME280;4931;44.874;-1.092;2023-03-15T05:39:17;101948.09;;;8.11;100.00
9784;BME280;4931;44.874;-1.092;2023-03-15T05:41:42;101946.31;;;8.17;100.00
9784;BME280;4931;44.874;-1.092;2023-03-15T05:44:08;101945.84;;;8.20;100.00
9784;BME280;4931;44.874;-1.092;2023-03-15T05:46:34;101939.78;;;8.18;100.00
9784;BME280;4931;44.874;-1.092;2023-03-15T05:48:59;101936.78;;;8.07;100.00
9784;BME280;4931;44.874;-1.092;2023-03-15T05:51:25;101950.22;;;8.09;100.00
9784;BME280;4931;44.874;-1.092;2023-03-15T05:53:50;101949.44;;;8.32;100.00
9784;BME280;4931;44.874;-1.092;2023-03-15T05:56:16;101930.28;;;8.20;100.00
9784;BME280;4931;44.874;-1.092;2023-03-15T05:58:41;101939.19;;;8.16;100.00
9784;BME280;4931;44.874;-1.092;2023-03-15T06:01:07;101935.97;;;8.19;100.00
9784;BME280;4931;44.874;-1.092;2023-03-15T06:03:32;101937.97;;;8.11;100.00
9784;BME280;4931;44.874;-1.092;2023-03-15T06:05:58;101961.25;;;8.02;100.00
9784;BME280;4931;44.874;-1.092;2023-03-15T06:08:24;101973.28;;;8.01;100.00
9784;BME280;4931;44.874;-1.092;2023-03-15T06:10:49;101985.06;;;8.13;100.00
9784;BME280;4931;44.874;-1.092;2023-03-15T06:13:15;101986.25;;;8.18;100.00
9784;BME280;4931;44.874;-1.092;2023-03-15T06:15:41;101984.94;;;8.20;100.00
9784;BME280;4931;44.874;-1.092;2023-03-15T06:18:06;101999.44;;;8.21;100.00
9784;BME280;4931;44.874;-1.092;2023-03-15T06:20:33;101990.31;;;8.27;100.00
9784;BME280;4931;44.874;-1.092;2023-03-15T06:22:58;101999.56;;;8.26;100.00
9784;BME280;4931;44.874;-1.092;2023-03-15T06:25:24;101995.78;;;8.27;100.00
9784;BME280;4931;44.874;-1.092;2023-03-15T06:27:50;102009.56;;;8.32;100.00
9784;BME280;4931;44.874;-1.092;2023-03-15T06:30:15;102020.03;;;8.35;100.00
9784;BME280;4931;44.874;-1.092;2023-03-15T06:32:41;102020.88;;;8.36;100.00
9784;BME280;4931;44.874;-1.092;2023-03-15T06:35:06;102021.72;;;8.36;100.00
9784;BME280;4931;44.874;-1.092;2023-03-15T06:37:33;102038.25;;;8.41;100.00
9784;BME280;4931;44.874;-1.092;2023-03-15T06:40:02;102038.88;;;8.43;100.00
9784;BME280;4931;44.874;-1.092;2023-03-15T06:42:30;102037.19;;;8.42;100.00
9784;BME280;4931;44.874;-1.092;2023-03-15T06:44:55;102035.53;;;8.41;100.00
9784;BME280;4931;44.874;-1.092;2023-03-15T06:47:21;102033.84;;;8.40;100.00
9784;BME280;4931;44.874;-1.092;2023-03-15T06:49:47;102036.28;;;8.49;100.00
9784;BME280;4931;44.874;-1.092;2023-03-15T06:52:15;102034.28;;;8.56;100.00
9784;BME280;4931;44.874;-1.092;2023-03-15T06:54:40;102040.97;;;8.41;100.00
9784;BME280;4931;44.874;-1.092;2023-03-15T06:57:06;102039.97;;;8.54;100.00
9784;BME280;4931;44.874;-1.092;2023-03-15T06:59:32;102037.44;;;8.41;100.00
9784;BME280;4931;44.874;-1.092;2023-03-15T07:01:57;102041.53;;;8.20;100.00
9784;BME280;4931;44.874;-1.092;2023-03-15T07:04:23;102058.38;;;8.17;100.00
9784;BME280;4931;44.874;-1.092;2023-03-15T07:06:48;102066.28;;;8.25;100.00
9784;BME280;4931;44.874;-1.092;2023-03-15T07:09:14;102082.00;;;8.41;100.00
9784;BME280;4931;44.874;-1.092;2023-03-15T07:11:39;102085.66;;;8.35;100.00
9784;BME280;4931;44.874;-1.092;2023-03-15T07:14:04;102102.38;;;8.45;100.00
9784;BME280;4931;44.874;-1.092;2023-03-15T07:16:30;102111.47;;;8.58;100.00
9784;BME280;4931;44.874;-1.092;2023-03-15T07:18:55;102111.50;;;8.70;100.00
9784;BME280;4931;44.874;-1.092;2023-03-15T07:21:23;102106.06;;;8.82;100.00
9784;BME280;4931;44.874;-1.092;2023-03-15T07:23:49;102106.06;;;8.82;100.00
9784;BME280;4931;44.874;-1.092;2023-03-15T07:26:14;102111.97;;;8.78;100.00
9784;BME280;4931;44.874;-1.092;2023-03-15T07:28:40;102117.38;;;8.97;100.00
9784;BME280;4931;44.874;-1.092;2023-03-15T07:31:06;102107.75;;;9.06;100.00
9784;BME280;4931;44.874;-1.092;2023-03-15T07:33:33;102111.31;;;9.19;100.00
9784;BME280;4931;44.874;-1.092;2023-03-15T07:36:00;102111.31;;;9.19;100.00
9784;BME280;4931;44.874;-1.092;2023-03-15T07:38:28;102105.34;;;9.22;100.00
9784;BME280;4931;44.874;-1.092;2023-03-15T07:40:54;102113.38;;;9.35;100.00
9784;BME280;4931;44.874;-1.092;2023-03-15T07:43:20;102106.34;;;9.39;100.00
9784;BME280;4931;44.874;-1.092;2023-03-15T07:45:46;102117.97;;;9.46;100.00
9784;BME280;4931;44.874;-1.092;2023-03-15T07:48:12;102125.25;;;9.53;100.00
9784;BME280;4931;44.874;-1.092;2023-03-15T07:50:38;102130.25;;;9.44;100.00
9784;BME280;4931;44.874;-1.092;2023-03-15T07:53:04;102119.53;;;9.42;100.00
9784;BME280;4931;44.874;-1.092;2023-03-15T07:55:33;102130.72;;;9.53;100.00
9784;BME280;4931;44.874;-1.092;2023-03-15T07:57:59;102137.50;;;9.62;100.00
9784;BME280;4931;44.874;-1.092;2023-03-15T08:00:24;102133.81;;;9.68;100.00
9784;BME280;4931;44.874;-1.092;2023-03-15T08:02:50;102142.84;;;9.69;100.00
9784;BME280;4931;44.874;-1.092;2023-03-15T08:05:17;102146.44;;;9.69;100.00
9784;BME280;4931;44.874;-1.092;2023-03-15T08:07:46;102155.84;;;9.73;100.00
9784;BME280;4931;44.874;-1.092;2023-03-15T08:10:12;102164.66;;;9.75;100.00
9784;BME280;4931;44.874;-1.092;2023-03-15T08:12:38;102174.69;;;9.70;100.00
9784;BME280;4931;44.874;-1.092;2023-03-15T08:15:09;102187.19;;;9.77;100.00
9784;BME280;4931;44.874;-1.092;2023-03-15T08:17:35;102189.94;;;9.66;100.00
9784;BME280;4931;44.874;-1.092;2023-03-15T08:20:00;102205.41;;;9.60;100.00
9784;BME280;4931;44.874;-1.092;2023-03-15T08:22:27;102207.56;;;9.82;100.00
9784;BME280;4931;44.874;-1.092;2023-03-15T08:24:54;102215.66;;;9.76;100.00
9784;BME280;4931;44.874;-1.092;2023-03-15T08:27:22;102208.50;;;9.75;100.00
9784;BME280;4931;44.874;-1.092;2023-03-15T08:29:48;102200.84;;;10.01;100.00
9784;BME280;4931;44.874;-1.092;2023-03-15T08:32:15;102205.97;;;9.97;100.00
9784;BME280;4931;44.874;-1.092;2023-03-15T08:34:41;102208.00;;;10.02;100.00
9784;BME280;4931;44.874;-1.092;2023-03-15T08:37:08;102212.88;;;10.12;100.00
9784;BME280;4931;44.874;-1.092;2023-03-15T08:39:33;102224.88;;;10.23;100.00
9784;BME280;4931;44.874;-1.092;2023-03-15T08:42:00;102214.91;;;10.17;100.00
9784;BME280;4931;44.874;-1.092;2023-03-15T08:44:26;102211.78;;;10.25;100.00
9784;BME280;4931;44.874;-1.092;2023-03-15T08:46:52;102207.72;;;10.39;100.00
9784;BME280;4931;44.874;-1.092;2023-03-15T08:49:17;102205.75;;;10.52;100.00
9784;BME280;4931;44.874;-1.092;2023-03-15T08:51:43;102205.97;;;10.62;100.00
9784;BME280;4931;44.874;-1.092;2023-03-15T08:54:08;102197.63;;;10.57;100.00
9784;BME280;4931;44.874;-1.092;2023-03-15T08:56:34;102177.63;;;10.73;100.00
9784;BME280;4931;44.874;-1.092;2023-03-15T08:59:00;102166.44;;;10.92;100.00
9784;BME280;4931;44.874;-1.092;2023-03-15T09:01:25;102149.97;;;10.92;100.00
9784;BME280;4931;44.874;-1.092;2023-03-15T09:03:51;102149.16;;;11.08;100.00
9784;BME280;4931;44.874;-1.092;2023-03-15T09:06:16;102105.03;;;10.98;100.00
9784;BME280;4931;44.874;-1.092;2023-03-15T09:08:42;102081.41;;;11.14;100.00
9784;BME280;4931;44.874;-1.092;2023-03-15T09:11:07;102059.88;;;11.28;100.00
9784;BME280;4931;44.874;-1.092;2023-03-15T09:13:33;102035.44;;;11.09;100.00
9784;BME280;4931;44.874;-1.092;2023-03-15T09:15:58;102005.78;;;11.28;100.00
9784;BME280;4931;44.874;-1.092;2023-03-15T09:18:24;101995.38;;;11.53;100.00
9784;BME280;4931;44.874;-1.092;2023-03-15T09:20:50;101991.03;;;11.57;100.00
9784;BME280;4931;44.874;-1.092;2023-03-15T09:23:15;101977.25;;;11.52;100.00
9784;BME280;4931;44.874;-1.092;2023-03-15T09:25:41;101966.06;;;11.36;100.00
9784;BME280;4931;44.874;-1.092;2023-03-15T09:28:08;101954.34;;;11.24;100.00
9784;BME280;4931;44.874;-1.092;2023-03-15T09:30:36;101964.84;;;11.27;100.00
9784;BME280;4931;44.874;-1.092;2023-03-15T09:33:03;101953.91;;;11.54;100.00
9784;BME280;4931;44.874;-1.092;2023-03-15T09:35:28;101946.44;;;11.50;100.00
9784;BME280;4931;44.874;-1.092;2023-03-15T09:37:54;101942.53;;;11.45;100.00
9784;BME280;4931;44.874;-1.092;2023-03-15T09:48:05;101938.06;;;11.89;100.00
9784;BME280;4931;44.874;-1.092;2023-03-15T09:51:03;101929.81;;;11.89;100.00
9784;BME280;4931;44.874;-1.092;2023-03-15T09:53:35;101937.13;;;12.05;100.00
9784;BME280;4931;44.874;-1.092;2023-03-15T09:56:19;101914.66;;;12.14;100.00
9784;BME280;4931;44.874;-1.092;2023-03-15T09:58:48;101895.47;;;12.19;100.00
9784;BME280;4931;44.874;-1.092;2023-03-15T10:01:15;101888.25;;;12.12;100.00
9784;BME280;4931;44.874;-1.092;2023-03-15T10:03:49;101887.97;;;12.14;100.00
9784;BME280;4931;44.874;-1.092;2023-03-15T10:06:18;101878.81;;;12.41;100.00
9784;BME280;4931;44.874;-1.092;2023-03-15T10:08:49;101857.78;;;12.62;100.00
9784;BME280;4931;44.874;-1.092;2023-03-15T10:16:49;101846.34;;;12.91;100.00
9784;BME280;4931;44.874;-1.092;2023-03-15T10:21:59;101820.34;;;13.45;100.00
9784;BME280;4931;44.874;-1.092;2023-03-15T10:30:02;101790.78;;;13.30;100.00
9784;BME280;4931;44.874;-1.092;2023-03-15T10:32:40;101781.97;;;13.28;100.00
9784;BME280;4931;44.874;-1.092;2023-03-15T10:35:14;101773.69;;;13.12;100.00
9784;BME280;4931;44.874;-1.092;2023-03-15T10:37:40;101779.47;;;13.16;100.00
9784;BME280;4931;44.874;-1.092;2023-03-15T10:40:08;101783.66;;;13.39;100.00
9784;BME280;4931;44.874;-1.092;2023-03-15T10:42:41;101778.72;;;13.41;100.00
9784;BME280;4931;44.874;-1.092;2023-03-15T10:45:23;101766.59;;;13.48;100.00
9784;BME280;4931;44.874;-1.092;2023-03-15T10:47:49;101750.88;;;13.43;100.00
9784;BME280;4931;44.874;-1.092;2023-03-15T10:50:18;101747.28;;;13.68;100.00
9784;BME280;4931;44.874;-1.092;2023-03-15T10:52:49;101732.38;;;13.80;100.00
9784;BME280;4931;44.874;-1.092;2023-03-15T10:55:24;101707.88;;;14.54;100.00
9784;BME280;4931;44.874;-1.092;2023-03-15T10:57:57;101701.19;;;14.70;100.00
9784;BME280;4931;44.874;-1.092;2023-03-15T11:00:31;101704.53;;;14.62;100.00
9784;BME280;4931;44.874;-1.092;2023-03-15T11:03:01;101691.84;;;14.56;100.00
9784;BME280;4931;44.874;-1.092;2023-03-15T11:05:38;101687.28;;;14.86;100.00
9784;BME280;4931;44.874;-1.092;2023-03-15T11:08:10;101688.31;;;14.45;100.00
9784;BME280;4931;44.874;-1.092;2023-03-15T11:10:36;101690.53;;;14.38;100.00
9784;BME280;4931;44.874;-1.092;2023-03-15T11:13:19;101699.16;;;14.26;100.00
9784;BME280;4931;44.874;-1.092;2023-03-15T11:16:33;101678.22;;;14.25;100.00
9784;BME280;4931;44.874;-1.092;2023-03-15T11:18:50;101688.75;;;14.07;100.00
9784;BME280;4931;44.874;-1.092;2023-03-15T11:21:24;101677.69;;;14.13;100.00
9784;BME280;4931;44.874;-1.092;2023-03-15T11:23:50;101683.78;;;14.04;100.00
9784;BME280;4931;44.874;-1.092;2023-03-15T11:26:21;101676.50;;;14.39;100.00
9784;BME280;4931;44.874;-1.092;2023-03-15T11:28:50;101674.91;;;14.78;100.00
9784;BME280;4931;44.874;-1.092;2023-03-15T11:31:19;101680.84;;;14.96;100.00
9784;BME280;4931;44.874;-1.092;2023-03-15T11:36:32;101679.69;;;14.62;100.00
9784;BME280;4931;44.874;-1.092;2023-03-15T11:39:01;101678.28;;;14.70;100.00
9784;BME280;4931;44.874;-1.092;2023-03-15T11:41:35;101677.63;;;14.28;100.00
9784;BME280;4931;44.874;-1.092;2023-03-15T11:44:10;101673.16;;;14.42;100.00
9784;BME280;4931;44.874;-1.092;2023-03-15T11:46:58;101685.94;;;14.23;100.00
9784;BME280;4931;44.874;-1.092;2023-03-15T11:49:36;101693.91;;;14.30;100.00
9784;BME280;4931;44.874;-1.092;2023-03-15T11:52:05;101688.13;;;14.26;100.00
9784;BME280;4931;44.874;-1.092;2023-03-15T11:54:31;101692.03;;;14.20;100.00
9784;BME280;4931;44.874;-1.092;2023-03-15T11:59:38;101673.91;;;14.53;100.00
9784;BME280;4931;44.874;-1.092;2023-03-15T12:09:53;101644.22;;;15.49;100.00
9784;BME280;4931;44.874;-1.092;2023-03-15T12:17:38;101642.38;;;15.68;100.00
9784;BME280;4931;44.874;-1.092;2023-03-15T12:25:38;101627.34;;;15.21;100.00
9784;BME280;4931;44.874;-1.092;2023-03-15T12:31:05;101635.25;;;14.98;100.00
9784;BME280;4931;44.874;-1.092;2023-03-15T12:33:42;101625.38;;;14.92;100.00
9784;BME280;4931;44.874;-1.092;2023-03-15T12:36:15;101627.81;;;14.99;100.00
9784;BME280;4931;44.874;-1.092;2023-03-15T12:38:53;101625.31;;;15.32;100.00
9784;BME280;4931;44.874;-1.092;2023-03-15T12:41:38;101608.81;;;14.92;100.00
9784;BME280;4931;44.874;-1.092;2023-03-15T12:51:59;101587.22;;;15.53;100.00
9784;BME280;4931;44.874;-1.092;2023-03-15T12:54:54;101590.31;;;16.19;100.00
9784;BME280;4931;44.874;-1.092;2023-03-15T12:57:26;101593.09;;;16.38;100.00
9784;BME280;4931;44.874;-1.092;2023-03-15T13:00:03;101583.75;;;17.05;100.00
9784;BME280;4931;44.874;-1.092;2023-03-15T13:03:15;101561.94;;;17.59;100.00
9784;BME280;4931;44.874;-1.092;2023-03-15T13:05:57;101576.56;;;17.04;100.00
9784;BME280;4931;44.874;-1.092;2023-03-15T13:08:39;101571.88;;;17.18;100.00
9784;BME280;4931;44.874;-1.092;2023-03-15T13:11:28;101568.41;;;17.40;100.00
9784;BME280;4931;44.874;-1.092;2023-03-15T13:17:18;101572.03;;;16.94;100.00
9784;BME280;4931;44.874;-1.092;2023-03-15T13:20:08;101555.94;;;16.77;100.00
9784;BME280;4931;44.874;-1.092;2023-03-15T13:25:24;101548.75;;;16.57;100.00
9784;BME280;4931;44.874;-1.092;2023-03-15T13:30:37;101549.63;;;16.38;100.00
9784;BME280;4931;44.874;-1.092;2023-03-15T13:33:26;101548.03;;;16.32;100.00
9784;BME280;4931;44.874;-1.092;2023-03-15T13:35:59;101550.66;;;16.42;100.00
9784;BME280;4931;44.874;-1.092;2023-03-15T13:38:39;101542.56;;;16.27;100.00
9784;BME280;4931;44.874;-1.092;2023-03-15T13:41:21;101540.06;;;16.12;100.00
9784;BME280;4931;44.874;-1.092;2023-03-15T13:43:46;101536.75;;;16.09;100.00
9784;BME280;4931;44.874;-1.092;2023-03-15T13:46:13;101530.84;;;15.97;100.00
9784;BME280;4931;44.874;-1.092;2023-03-15T13:48:41;101527.47;;;16.00;100.00
9784;BME280;4931;44.874;-1.092;2023-03-15T13:51:20;101523.13;;;15.94;100.00
9784;BME280;4931;44.874;-1.092;2023-03-15T13:53:50;101516.94;;;16.02;100.00
9784;BME280;4931;44.874;-1.092;2023-03-15T13:56:19;101517.44;;;16.04;100.00
9784;BME280;4931;44.874;-1.092;2023-03-15T13:58:45;101514.53;;;16.15;100.00
9784;BME280;4931;44.874;-1.092;2023-03-15T14:01:14;101516.84;;;16.46;100.00
9784;BME280;4931;44.874;-1.092;2023-03-15T14:03:42;101509.75;;;16.72;100.00
9784;BME280;4931;44.874;-1.092;2023-03-15T14:06:19;101507.91;;;17.15;100.00
9784;BME280;4931;44.874;-1.092;2023-03-15T14:08:46;101502.88;;;17.31;100.00
9784;BME280;4931;44.874;-1.092;2023-03-15T14:11:34;101501.66;;;17.51;100.00
9784;BME280;4931;44.874;-1.092;2023-03-15T14:14:22;101485.63;;;17.48;100.00
9784;BME280;4931;44.874;-1.092;2023-03-15T14:16:49;101490.34;;;17.61;100.00
9784;BME280;4931;44.874;-1.092;2023-03-15T14:19:20;101493.03;;;17.52;100.00
9784;BME280;4931;44.874;-1.092;2023-03-15T14:22:01;101499.00;;;17.46;100.00